createdAt,value
2022-11-16T00:01:24.895Z,100002.47
2022-11-16T00:03:52.898Z,100007.44
2022-11-16T00:06:20.281Z,99998.69
2022-11-16T00:09:08.018Z,100000.50
2022-11-16T00:11:34.744Z,99997.72
2022-11-16T00:14:01.087Z,99993.25
2022-11-16T00:16:27.900Z,99994.06
2022-11-16T00:18:58.918Z,100003.00
2022-11-16T00:21:26.952Z,99998.53
2022-11-16T00:23:53.991Z,99996.72
2022-11-16T00:26:20.851Z,99992.25
2022-11-16T00:28:48.058Z,99994.91
2022-11-16T00:31:14.409Z,99999.34
2022-11-16T00:33:41.131Z,99992.25
2022-11-16T00:36:10.590Z,99990.44
2022-11-16T00:38:36.977Z,99999.19
2022-11-16T00:41:03.665Z,99991.25
2022-11-16T00:43:30.305Z,99997.38
2022-11-16T00:45:56.634Z,99995.41
2022-11-16T00:48:22.965Z,99988.97
2022-11-16T00:50:49.363Z,99983.69
2022-11-16T00:53:18.689Z,99990.63
2022-11-16T00:55:46.082Z,99987.00
2022-11-16T00:58:12.756Z,99982.53
2022-11-16T01:00:39.876Z,99981.56
2022-11-16T01:03:06.934Z,99977.09
2022-11-16T01:05:33.666Z,99976.13
2022-11-16T01:08:00.330Z,99974.47
2022-11-16T01:10:27.952Z,99979.75
2022-11-16T01:12:54.795Z,99979.75
2022-11-16T01:15:22.840Z,99976.28
2022-11-16T01:17:49.244Z,99974.47
2022-11-16T01:20:18.746Z,99968.19
2022-11-16T01:22:45.690Z,99968.38
2022-11-16T01:25:13.409Z,99967.53
2022-11-16T01:27:40.636Z,99964.91
2022-11-16T01:30:09.638Z,99965.56
2022-11-16T01:32:36.262Z,99966.53
2022-11-16T01:35:03.301Z,99961.25
2022-11-16T01:37:30.409Z,99957.63
2022-11-16T01:39:56.753Z,99956.63
2022-11-16T01:42:27.161Z,99968.84
2022-11-16T01:44:58.565Z,99955.00
2022-11-16T01:47:24.922Z,99958.28
2022-11-16T01:50:01.359Z,99963.56
2022-11-16T01:52:31.512Z,99972.47
2022-11-16T01:54:58.034Z,99963.56
2022-11-16T01:57:30.511Z,99955.00
2022-11-16T02:00:00.446Z,99962.75
2022-11-16T02:02:26.951Z,99960.28
2022-11-16T02:04:54.893Z,99954.81
2022-11-16T02:08:05.456Z,99957.78
2022-11-16T02:10:55.339Z,99948.53
2022-11-16T02:13:34.706Z,99942.25
2022-11-16T02:16:35.625Z,99933.50
2022-11-16T02:19:01.876Z,99933.50
2022-11-16T02:21:46.438Z,99935.16
2022-11-16T02:24:27.923Z,99936.16
2022-11-16T02:27:28.406Z,99928.22
2022-11-16T02:29:56.032Z,99923.13
2022-11-16T02:32:30.332Z,99933.50
2022-11-16T02:35:05.961Z,99931.88
2022-11-16T02:37:38.285Z,99926.59
2022-11-16T02:40:07.850Z,99933.50
2022-11-16T02:42:40.959Z,99927.41
2022-11-16T02:45:12.490Z,99938.78
2022-11-16T02:47:41.504Z,99929.88
2022-11-16T02:50:14.049Z,99922.94
2022-11-16T02:52:40.440Z,99923.78
2022-11-16T02:55:07.328Z,99926.28
2022-11-16T02:57:51.356Z,99921.00
2022-11-16T03:00:23.958Z,99921.00
2022-11-16T03:03:00.126Z,99928.09
2022-11-16T03:05:42.245Z,99927.25
2022-11-16T03:08:35.163Z,99927.41
2022-11-16T03:11:23.857Z,99920.31
2022-11-16T03:13:52.157Z,99933.50
2022-11-16T03:16:37.932Z,99931.03
2022-11-16T03:19:08.551Z,99938.97
2022-11-16T03:21:48.383Z,99937.50
2022-11-16T03:24:15.522Z,99941.13
2022-11-16T03:27:01.214Z,99938.63
2022-11-16T03:29:40.406Z,99939.44
2022-11-16T03:32:19.382Z,99941.44
2022-11-16T03:34:56.266Z,99934.50
2022-11-16T03:37:24.769Z,99940.94
2022-11-16T03:39:53.261Z,99932.34
2022-11-16T03:42:21.709Z,99928.53
2022-11-16T03:44:49.432Z,99938.28
2022-11-16T03:47:15.806Z,99947.34
2022-11-16T03:49:46.358Z,99943.06
2022-11-16T03:52:14.233Z,99948.66
2022-11-16T03:54:40.962Z,99948.66
2022-11-16T03:57:07.320Z,99944.38
2022-11-16T03:59:33.694Z,99946.34
2022-11-16T04:02:00.043Z,99949.28
2022-11-16T04:04:52.493Z,99952.28
2022-11-16T04:07:37.291Z,99957.84
2022-11-16T04:10:22.634Z,99969.75
2022-11-16T04:13:09.379Z,99964.75
2022-11-16T04:15:54.108Z,99960.97
2022-11-16T04:18:38.900Z,99966.56
2022-11-16T04:21:23.985Z,99969.66
2022-11-16T04:24:08.838Z,99960.44
2022-11-16T04:26:54.089Z,99960.91
2022-11-16T04:29:20.488Z,99962.34
2022-11-16T04:32:05.410Z,99963.66
2022-11-16T04:34:50.231Z,99961.34
2022-11-16T04:37:36.535Z,99969.72
2022-11-16T04:40:03.971Z,99969.22
2022-11-16T04:42:30.339Z,99975.06
2022-11-16T04:45:15.489Z,99970.09
2022-11-16T04:47:41.834Z,99976.69
2022-11-16T04:50:08.369Z,99976.31
2022-11-16T04:52:34.842Z,99978.59
2022-11-16T04:55:01.135Z,99978.09
2022-11-16T04:57:27.479Z,99979.19
2022-11-16T04:59:53.769Z,99984.81
2022-11-16T05:02:20.514Z,99985.63
2022-11-16T05:04:46.824Z,99982.31
2022-11-16T05:07:14.837Z,99981.78
2022-11-16T05:09:46.697Z,99994.31
2022-11-16T05:12:16.259Z,99986.69
2022-11-16T05:14:43.231Z,99989.66
2022-11-16T05:17:09.778Z,99995.91
2022-11-16T05:19:54.642Z,100001.47
2022-11-16T05:22:21.371Z,100000.81
2022-11-16T05:24:47.699Z,100002.78
2022-11-16T05:27:17.295Z,100001.94
2022-11-16T05:29:43.803Z,100008.34
2022-11-16T05:32:12.471Z,100003.38
2022-11-16T05:34:39.516Z,100000.03
2022-11-16T05:37:06.126Z,100004.66
2022-11-16T05:39:32.463Z,100003.97
2022-11-16T05:41:58.778Z,100008.44
2022-11-16T05:44:25.510Z,100009.53
2022-11-16T05:46:52.685Z,100010.53
2022-11-16T05:49:19.313Z,100018.75
2022-11-16T05:51:46.722Z,100017.09
2022-11-16T05:54:20.565Z,100022.38
2022-11-16T05:56:48.300Z,100027.63
2022-11-16T05:59:19.089Z,100025.94
2022-11-16T06:01:46.191Z,100033.19
2022-11-16T06:04:13.490Z,100031.53
2022-11-16T06:06:40.305Z,100033.78
2022-11-16T06:09:07.518Z,100032.13
2022-11-16T06:11:36.284Z,100026.88
2022-11-16T06:14:03.090Z,100024.91
2022-11-16T06:16:29.431Z,100025.22
2022-11-16T06:18:55.749Z,100025.22
2022-11-16T06:21:22.077Z,100025.88
2022-11-16T06:23:49.052Z,100028.81
2022-11-16T06:26:15.422Z,100023.84
2022-11-16T06:28:41.926Z,100024.97
2022-11-16T06:31:08.414Z,100017.53
2022-11-16T06:33:34.766Z,100028.59
2022-11-16T06:36:01.075Z,100035.50
2022-11-16T06:38:27.533Z,100031.66
2022-11-16T06:40:56.206Z,100029.63
2022-11-16T06:43:24.202Z,100031.19
2022-11-16T06:45:55.718Z,100039.25
2022-11-16T06:48:22.861Z,100036.91
2022-11-16T06:50:50.631Z,100046.75
2022-11-16T06:53:17.918Z,100051.94
2022-11-16T06:55:44.709Z,100046.00
2022-11-16T06:58:11.134Z,100052.69
2022-11-16T07:00:37.519Z,100052.94
2022-11-16T07:03:04.373Z,100057.53
2022-11-16T07:05:31.419Z,100054.91
2022-11-16T07:07:58.008Z,100064.06
2022-11-16T07:10:25.313Z,100062.84
2022-11-16T07:12:51.755Z,100058.44
2022-11-16T07:15:18.243Z,100060.50
2022-11-16T07:17:44.614Z,100065.22
2022-11-16T07:20:11.995Z,100065.53
2022-11-16T07:22:38.514Z,100075.75
2022-11-16T07:25:05.225Z,100077.28
2022-11-16T07:27:31.569Z,100074.56
2022-11-16T07:29:57.885Z,100078.31
2022-11-16T07:32:24.217Z,100093.94
2022-11-16T07:34:50.520Z,100101.53
2022-11-16T07:37:16.830Z,100093.81
2022-11-16T07:39:43.557Z,100105.44
2022-11-16T07:42:11.650Z,100097.97
2022-11-16T07:44:38.980Z,100103.91
2022-11-16T07:47:06.178Z,100105.97
2022-11-16T07:49:32.512Z,100108.28
2022-11-16T07:51:58.870Z,100112.00
2022-11-16T07:54:25.261Z,100113.09
2022-11-16T07:56:52.106Z,100119.47
2022-11-16T07:59:18.403Z,100117.75
2022-11-16T08:01:47.277Z,100118.41
2022-11-16T08:04:15.321Z,100120.97
2022-11-16T08:06:41.642Z,100125.97
2022-11-16T08:09:09.349Z,100127.34
2022-11-16T08:11:35.863Z,100137.44
2022-11-16T08:14:02.267Z,100143.81
2022-11-16T08:16:29.173Z,100135.25
2022-11-16T08:18:55.786Z,100139.31
2022-11-16T08:21:22.095Z,100134.91
2022-11-16T08:23:49.916Z,100139.69
2022-11-16T08:26:19.891Z,100136.66
2022-11-16T08:28:47.663Z,100146.31
2022-11-16T08:31:17.325Z,100153.34
2022-11-16T08:33:43.689Z,100149.44
2022-11-16T08:36:14.459Z,100150.06
2022-11-16T08:38:41.018Z,100154.31
2022-11-16T08:41:07.474Z,100138.06
2022-11-16T08:43:33.965Z,100138.84
2022-11-16T08:46:00.683Z,100154.47
2022-11-16T08:48:27.370Z,100160.00
2022-11-16T08:51:16.323Z,100155.25
2022-11-16T08:53:40.259Z,100152.75
2022-11-16T08:56:09.062Z,100161.13
2022-11-16T08:58:36.358Z,100160.28
2022-11-16T09:01:13.861Z,100161.34
2022-11-16T09:03:41.757Z,100154.72
2022-11-16T09:06:09.410Z,100154.72
2022-11-16T09:08:38.052Z,100161.44
2022-11-16T09:11:06.003Z,100162.81
2022-11-16T09:13:32.356Z,100162.69
2022-11-16T09:15:59.660Z,100165.06
2022-11-16T09:18:26.654Z,100157.91
2022-11-16T09:20:53.202Z,100156.03
2022-11-16T09:23:24.895Z,100153.19
2022-11-16T09:25:51.867Z,100158.28
2022-11-16T09:28:19.578Z,100164.94
2022-11-16T09:30:48.518Z,100163.69
2022-11-16T09:33:14.845Z,100161.19
2022-11-16T09:35:41.288Z,100159.97
2022-11-16T09:38:09.807Z,100165.63
2022-11-16T09:40:43.174Z,100171.81
2022-11-16T09:43:44.139Z,100172.41
2022-11-16T09:46:25.624Z,100173.38
2022-11-16T09:48:56.329Z,100172.28
2022-11-16T09:51:25.650Z,100171.09
2022-11-16T09:54:00.472Z,100166.28
2022-11-16T09:56:29.542Z,100172.69
2022-11-16T09:59:07.863Z,100177.13
2022-11-16T10:01:43.991Z,100174.34
2022-11-16T10:04:17.269Z,100179.41
2022-11-16T10:06:55.332Z,100170.31
2022-11-16T10:09:22.196Z,100174.06
2022-11-16T10:12:26.019Z,100160.81
2022-11-16T10:15:12.733Z,100162.63
2022-11-16T10:18:13.752Z,100170.94
2022-11-16T10:21:01.937Z,100164.47
2022-11-16T10:23:49.828Z,100168.91
2022-11-16T10:26:27.837Z,100156.03
2022-11-16T10:29:04.988Z,100160.75
2022-11-16T10:31:53.612Z,100163.94
2022-11-16T10:34:28.378Z,100160.06
2022-11-16T10:37:03.107Z,100167.50
2022-11-16T10:39:32.137Z,100165.06
2022-11-16T10:42:07.424Z,100168.72
2022-11-16T10:44:38.782Z,100160.75
2022-11-16T10:47:18.531Z,100159.44
2022-11-16T10:49:56.503Z,100170.31
2022-11-16T10:52:23.596Z,100166.81
2022-11-16T10:54:50.160Z,100171.97
2022-11-16T10:57:17.716Z,100168.38
2022-11-16T10:59:50.030Z,100162.56
2022-11-16T11:02:35.019Z,100176.56
2022-11-16T11:05:17.011Z,100168.72
2022-11-16T11:07:59.756Z,100164.16
2022-11-16T11:10:34.220Z,100169.41
2022-11-16T11:13:08.096Z,100182.09
2022-11-16T11:15:34.610Z,100176.47
2022-11-16T11:18:20.765Z,100162.81
2022-11-16T11:20:51.077Z,100157.47
2022-11-16T11:23:23.714Z,100154.53
2022-11-16T11:25:58.253Z,100160.13
2022-11-16T11:28:37.606Z,100155.75
2022-11-16T11:31:09.278Z,100144.31
2022-11-16T11:33:38.578Z,100145.13
2022-11-16T11:36:25.885Z,100146.97
2022-11-16T11:39:03.290Z,100139.28
2022-11-16T11:41:41.686Z,100133.53
2022-11-16T11:44:13.835Z,100129.66
2022-11-16T11:47:35.068Z,100127.38
2022-11-16T11:49:39.016Z,100120.75
2022-11-16T11:52:14.267Z,100113.63
2022-11-16T11:54:47.579Z,100117.59
2022-11-16T11:57:20.473Z,100111.41
2022-11-16T11:59:48.175Z,100117.25
2022-11-16T12:02:26.352Z,100119.81
2022-11-16T12:05:11.535Z,100133.59
2022-11-16T12:08:26.510Z,100131.94
2022-11-16T12:11:00.309Z,100140.84
2022-11-16T12:13:58.366Z,100137.75
2022-11-16T12:16:46.202Z,100143.25
2022-11-16T12:19:18.078Z,100135.66
2022-11-16T12:21:55.623Z,100143.78
2022-11-16T12:24:46.307Z,100130.00
2022-11-16T12:27:39.816Z,100139.25
2022-11-16T12:30:14.858Z,100141.75
2022-11-16T12:32:59.274Z,100137.31
2022-11-16T12:35:40.739Z,100142.13
2022-11-16T12:38:28.677Z,100136.50
2022-11-16T12:41:12.385Z,100137.00
2022-11-16T12:44:03.588Z,100125.94
2022-11-16T12:46:45.255Z,100116.13
2022-11-16T12:49:30.281Z,100097.53
2022-11-16T12:52:08.611Z,100094.38
2022-11-16T12:58:31.404Z,100085.81
2022-11-16T13:01:36.179Z,100090.94
2022-11-16T13:04:41.059Z,100097.72
2022-11-16T13:07:16.852Z,100085.78
2022-11-16T13:09:48.850Z,100097.66
2022-11-16T13:12:23.368Z,100099.22
2022-11-16T13:14:53.648Z,100092.31
2022-11-16T13:17:31.000Z,100090.09
2022-11-16T13:20:18.991Z,100090.94
2022-11-16T13:22:59.453Z,100087.88
2022-11-16T13:25:56.029Z,100080.59
2022-11-16T13:28:38.418Z,100074.31
2022-11-16T13:31:10.339Z,100073.50
2022-11-16T13:33:49.182Z,100086.09
2022-11-16T13:36:32.154Z,100085.25
2022-11-16T13:38:58.775Z,100083.25
2022-11-16T13:41:38.369Z,100084.28
2022-11-16T13:44:18.779Z,100081.63
2022-11-16T13:46:57.338Z,100079.63
2022-11-16T13:49:23.710Z,100085.50
2022-11-16T13:52:07.037Z,100077.88
2022-11-16T13:54:49.302Z,100080.03
2022-11-16T13:57:32.490Z,100066.81
2022-11-16T14:00:01.776Z,100068.31
2022-11-16T14:02:31.553Z,100063.84
2022-11-16T14:05:14.148Z,100053.91
2022-11-16T14:07:46.951Z,100061.34
2022-11-16T14:10:42.518Z,100053.44
2022-11-16T14:13:37.771Z,100056.44
2022-11-16T14:16:19.486Z,100062.56
2022-11-16T14:18:47.794Z,100047.16
2022-11-16T14:21:20.310Z,100051.63
2022-11-16T14:24:05.268Z,100032.13
2022-11-16T14:26:42.247Z,100036.25
2022-11-16T14:29:24.355Z,100040.81
2022-11-16T14:31:54.336Z,100040.78
2022-11-16T14:34:24.675Z,100042.88
2022-11-16T14:36:51.662Z,100040.72
2022-11-16T14:39:41.073Z,100037.91
2022-11-16T14:42:18.084Z,100034.75
2022-11-16T14:44:44.894Z,100034.47
2022-11-16T14:47:27.024Z,100037.47
2022-11-16T14:49:55.016Z,100030.06
2022-11-16T14:52:35.394Z,100015.38
2022-11-16T14:55:06.440Z,100016.34
2022-11-16T14:57:32.898Z,100013.66
2022-11-16T15:00:11.972Z,100014.34
2022-11-16T15:02:40.075Z,100013.00
2022-11-16T15:05:07.017Z,100000.22
2022-11-16T15:07:33.529Z,100005.78
2022-11-16T15:10:00.428Z,100012.19
2022-11-16T15:12:42.098Z,100003.53
2022-11-16T15:15:11.503Z,100013.22
2022-11-16T15:17:39.903Z,100006.72
2022-11-16T15:20:27.167Z,99989.66
2022-11-16T15:22:57.188Z,100000.00
2022-11-16T15:25:56.235Z,99999.25
2022-11-16T15:28:31.717Z,99983.84
2022-11-16T15:31:01.627Z,99983.63
2022-11-16T15:33:30.786Z,99986.25
2022-11-16T15:35:57.532Z,99987.84
2022-11-16T15:38:27.591Z,99988.78
2022-11-16T15:41:02.263Z,99983.78
2022-11-16T15:43:32.323Z,99975.16
2022-11-16T15:46:00.425Z,99975.78
2022-11-16T15:48:28.404Z,99969.44
2022-11-16T15:51:13.482Z,99959.59
2022-11-16T15:53:44.425Z,99951.38
2022-11-16T15:56:18.970Z,99947.88
2022-11-16T15:58:46.282Z,99941.22
2022-11-16T16:01:14.110Z,99941.22
2022-11-16T16:03:51.093Z,99937.38
2022-11-16T16:06:44.164Z,99947.91
2022-11-16T16:09:23.460Z,99925.75
2022-11-16T16:11:50.179Z,99908.91
2022-11-16T16:14:25.098Z,99910.84
2022-11-16T16:16:57.865Z,99942.13
2022-11-16T16:19:32.325Z,99938.28
2022-11-16T16:21:59.462Z,99937.47
2022-11-16T16:24:46.048Z,99935.22
2022-11-16T16:27:23.818Z,99935.22
2022-11-16T16:29:55.554Z,99941.16
2022-11-16T16:32:33.481Z,99931.28
2022-11-16T16:35:02.502Z,99925.88
2022-11-16T16:37:30.930Z,99919.94
2022-11-16T16:39:58.347Z,99917.75
2022-11-16T16:42:25.117Z,99916.09
2022-11-16T16:44:51.506Z,99914.75
2022-11-16T16:47:20.585Z,99913.09
2022-11-16T16:49:47.806Z,99907.22
2022-11-16T16:52:14.241Z,99904.75
2022-11-16T16:54:41.048Z,99905.06
2022-11-16T16:57:13.104Z,99912.50
2022-11-16T16:59:40.239Z,99906.72
2022-11-16T17:02:06.567Z,99896.13
2022-11-16T17:04:32.852Z,99896.25
2022-11-16T17:06:59.207Z,99890.69
2022-11-16T17:09:25.602Z,99888.81
2022-11-16T17:11:51.924Z,99877.47
2022-11-16T17:14:19.746Z,99887.69
2022-11-16T17:16:46.045Z,99888.00
2022-11-16T17:19:13.805Z,99883.00
2022-11-16T17:21:40.306Z,99881.63
2022-11-16T17:24:07.003Z,99887.22
2022-11-16T17:26:33.355Z,99885.56
2022-11-16T17:28:59.676Z,99883.31
2022-11-16T17:31:26.652Z,99886.91
2022-11-16T17:33:53.039Z,99884.19
2022-11-16T17:36:19.844Z,99882.84
2022-11-16T17:38:46.185Z,99892.31
2022-11-16T17:41:15.206Z,99888.69
2022-11-16T17:43:43.521Z,99885.25
2022-11-16T17:46:14.706Z,99881.00
2022-11-16T17:48:43.177Z,99877.13
2022-11-16T17:51:11.507Z,99870.38
2022-11-16T17:53:39.788Z,99867.28
2022-11-16T17:56:07.243Z,99862.47
2022-11-16T17:58:34.333Z,99863.72
2022-11-16T18:01:00.694Z,99868.00
2022-11-16T18:03:28.314Z,99854.88
2022-11-16T18:06:03.615Z,99851.66
2022-11-16T18:08:31.753Z,99854.41
2022-11-16T18:11:06.745Z,99852.69
2022-11-16T18:13:34.241Z,99851.28
2022-11-16T18:16:05.680Z,99856.25
2022-11-16T18:18:33.225Z,99853.16
2022-11-16T18:21:02.471Z,99852.25
2022-11-16T18:23:28.981Z,99843.09
2022-11-16T18:25:55.939Z,99841.69
2022-11-16T18:28:22.719Z,99852.44
2022-11-16T18:30:49.118Z,99854.31
2022-11-16T18:33:16.379Z,99854.69
2022-11-16T18:35:43.679Z,99850.69
2022-11-16T18:38:12.993Z,99845.41
2022-11-16T18:40:40.252Z,99849.41
2022-11-16T18:43:12.425Z,99849.03
2022-11-16T18:45:38.903Z,99842.25
2022-11-16T18:48:05.293Z,99838.28
2022-11-16T18:50:31.599Z,99837.16
2022-11-16T18:52:57.937Z,99820.75
2022-11-16T18:55:24.262Z,99831.88
2022-11-16T18:57:50.564Z,99821.72
2022-11-16T19:00:19.301Z,99827.50
2022-11-16T19:02:45.657Z,99810.72
2022-11-16T19:05:11.962Z,99812.38
2022-11-16T19:07:38.360Z,99797.53
2022-11-16T19:10:05.122Z,99804.16
2022-11-16T19:12:31.442Z,99798.44
2022-11-16T19:14:57.774Z,99796.09
2022-11-16T19:17:24.795Z,99789.03
2022-11-16T19:19:51.085Z,99783.16
2022-11-16T19:22:18.149Z,99766.34
2022-11-16T19:24:44.441Z,99758.81
2022-11-16T19:27:11.943Z,99761.00
2022-11-16T19:29:38.258Z,99750.28
2022-11-16T19:32:04.749Z,99737.50
2022-11-16T19:34:33.449Z,99735.16
2022-11-16T19:36:59.941Z,99743.53
2022-11-16T19:39:26.682Z,99730.88
2022-11-16T19:41:53.014Z,99725.16
2022-11-16T19:44:19.959Z,99719.72
2022-11-16T19:46:46.300Z,99727.31
2022-11-16T19:49:19.625Z,99710.16
2022-11-16T19:51:46.379Z,99703.53
2022-11-16T19:54:14.637Z,99698.81
2022-11-16T19:56:41.636Z,99695.19
2022-11-16T19:59:07.969Z,99695.34
2022-11-16T20:01:34.375Z,99683.81
2022-11-16T20:04:03.303Z,99679.91
2022-11-16T20:06:32.396Z,99678.22
2022-11-16T20:09:00.923Z,99677.56
2022-11-16T20:11:33.974Z,99669.66
2022-11-16T20:14:00.965Z,99659.75
2022-11-16T20:16:32.696Z,99656.13
2022-11-16T20:19:01.874Z,99651.19
2022-11-16T20:21:30.549Z,99649.91
2022-11-16T20:24:03.127Z,99643.31
2022-11-16T20:26:34.241Z,99642.19
2022-11-16T20:29:00.617Z,99647.94
2022-11-16T20:31:29.279Z,99635.13
2022-11-16T20:34:00.721Z,99649.28
2022-11-16T20:36:29.233Z,99636.44
2022-11-16T20:38:58.047Z,99628.88
2022-11-16T20:41:32.830Z,99623.94
2022-11-16T20:44:01.109Z,99617.84
2022-11-16T20:46:29.791Z,99621.31
2022-11-16T20:48:59.239Z,99611.94
2022-11-16T20:51:25.679Z,99602.88
2022-11-16T20:53:52.428Z,99604.84
2022-11-16T20:56:19.896Z,99590.03
2022-11-16T20:58:47.150Z,99595.13
2022-11-16T21:01:20.168Z,99598.59
2022-11-16T21:03:46.881Z,99596.31
2022-11-16T21:06:14.391Z,99601.56
2022-11-16T21:08:41.412Z,99587.72
2022-11-16T21:11:16.715Z,99578.81
2022-11-16T21:14:03.781Z,99569.44
2022-11-16T21:16:30.554Z,99557.72
2022-11-16T21:18:57.119Z,99552.81
2022-11-16T21:21:25.581Z,99546.88
2022-11-16T21:23:52.267Z,99547.88
2022-11-16T21:26:24.183Z,99534.38
2022-11-16T21:28:51.299Z,99537.34
2022-11-16T21:31:20.043Z,99524.81
2022-11-16T21:33:47.323Z,99514.28
2022-11-16T21:36:19.026Z,99508.66
2022-11-16T21:38:45.983Z,99512.28
2022-11-16T21:41:14.884Z,99502.91
2022-11-16T21:43:41.685Z,99491.88
2022-11-16T21:46:14.605Z,99497.13
2022-11-16T21:48:41.344Z,99482.97
2022-11-16T21:51:09.968Z,99477.69
2022-11-16T21:53:36.956Z,99476.41
2022-11-16T21:56:05.582Z,99467.16
2022-11-16T21:58:31.960Z,99466.84
2022-11-16T22:01:01.285Z,99454.50
2022-11-16T22:03:29.867Z,99448.41
2022-11-16T22:06:17.283Z,99449.72
2022-11-16T22:08:44.367Z,99448.25
2022-11-16T22:11:11.770Z,99434.56
2022-11-16T22:13:38.558Z,99434.56
2022-11-16T22:16:10.648Z,99423.38
2022-11-16T22:18:37.381Z,99424.84
2022-11-16T22:21:04.849Z,99423.72
2022-11-16T22:23:31.965Z,99404.91
2022-11-16T22:26:02.065Z,99400.78
2022-11-16T22:28:28.516Z,99392.25
2022-11-16T22:31:11.697Z,99381.88
2022-11-16T22:33:38.866Z,99372.31
2022-11-16T22:36:08.206Z,99365.06
2022-11-16T22:38:35.142Z,99356.00
2022-11-16T22:41:01.450Z,99354.53
2022-11-16T22:43:29.808Z,99345.94
2022-11-16T22:46:04.363Z,99332.13
2022-11-16T22:48:32.184Z,99342.66
2022-11-16T22:51:03.534Z,99329.81
2022-11-16T22:53:29.849Z,99325.06
2022-11-16T22:56:03.136Z,99314.53
2022-11-16T22:58:29.448Z,99303.34
2022-11-16T23:00:55.769Z,99304.03
2022-11-16T23:03:22.182Z,99294.69
2022-11-16T23:05:48.507Z,99282.19
2022-11-16T23:08:14.847Z,99268.03
2022-11-16T23:11:01.129Z,99268.34
2022-11-16T23:13:46.138Z,99266.22
2022-11-16T23:16:12.440Z,99247.97
2022-11-16T23:18:39.879Z,99261.78
2022-11-16T23:21:24.425Z,99258.97
2022-11-16T23:24:09.321Z,99248.63
2022-11-16T23:26:54.110Z,99231.50
2022-11-16T23:29:20.459Z,99241.41
2022-11-16T23:31:46.761Z,99225.13
2022-11-16T23:34:13.105Z,99227.59
2022-11-16T23:36:39.425Z,99216.56
2022-11-16T23:39:05.784Z,99212.94
2022-11-16T23:41:50.813Z,99200.94
2022-11-16T23:44:17.119Z,99190.09
2022-11-16T23:46:43.483Z,99183.19
2022-11-16T23:49:09.789Z,99158.19
2022-11-16T23:51:36.102Z,99147.66
2022-11-16T23:54:02.401Z,99137.13
2022-11-16T23:56:28.978Z,99125.28
2022-11-16T23:58:57.003Z,99101.78
